Terminal Aerodrome Forecast
Issued by NWS Detroit/Pontiac, MI

Home | Current Version | Previous Version | Text Only | Print | Product List | Glossary On
Versions: 1 2 3 4 5 6 7 8 9 10 11 12 13 14
000
FTUS43 KDTX 260548
TAFFNT
TAF
KFNT 260548Z 2606/2706 16010KT P6SM SCT060 BKN080
      TEMPO 2606/2610 5SM SHRA BKN040 OVC060
     FM261000 24010KT 4SM -SHRA BKN018 OVC040
     FM261400 25011G20KT P6SM BKN025 OVC080
     FM261600 26014G24KT P6SM BKN040
     FM261900 26017G26KT P6SM SCT050
     FM270000 24011G19KT P6SM BKN045=

USA.gov is the U.S. government's official web portal to all federal, state and local government web resources and services.